This is the latest recevied weather packets stored in our database for station/object KLEMETTI. If no packets are shown the sender has not sent any weather packets the latest 10 day(s).
| Time | Temp. | Humidity | Pressure | Rain* | Wind** | Luminosity | Snow |
|---|---|---|---|---|---|---|---|
| 1778282857 | 2.22° C | 69% | 1027.9 hPa | 0 mm | - | - | - |
| 1778281657 | 2.22° C | 69% | 1027.8 hPa | 0 mm | - | - | - |
| 1778278057 | 3.89° C | 64% | 1027.9 hPa | 0 mm | - | - | - |
| 1778275658 | 3.89° C | 67% | 1027.7 hPa | 0 mm | - | - | - |
| 1778273256 | 5° C | 62% | 1027.5 hPa | 0 mm | - | - | - |
| 1778272056 | 5.56° C | 62% | 1027.3 hPa | 0 mm | - | - | - |
| 1778270856 | 6.11° C | 61% | 1027.3 hPa | 0 mm | - | - | - |
| 1778268456 | 7.78° C | 50% | 1027.1 hPa | 0 mm | - | - | - |
| 1778267256 | 8.33° C | 48% | 1027 hPa | 0 mm | - | - | - |
| 1778264855 | 9.44° C | 44% | 1026.8 hPa | 0 mm | - | - | - |
| 1778263655 | 9.44° C | 41% | 1026.8 hPa | 0 mm | - | - | - |
| 1778261254 | 10° C | 35% | 1026.7 hPa | 0 mm | - | - | - |
| 1778260055 | 10.56° C | 35% | 1026.7 hPa | 0 mm | - | - | - |
| 1778254054 | 11.67° C | 32% | 1026.8 hPa | 0 mm | - | - | - |
| 1778252854 | 12.22° C | 32% | 1026.8 hPa | 0 mm | - | - | - |
| 1778251655 | 12.78° C | 33% | 1026.7 hPa | 0 mm | - | - | - |
| 1778250454 | 12.78° C | 31% | 1026.7 hPa | 0 mm | - | - | - |
| 1778249254 | 12.78° C | 32% | 1026.7 hPa | 0 mm | - | - | - |
| 1778246855 | 12.78° C | 36% | 1026.9 hPa | 0 mm | - | - | - |
| 1778245653 | 12.78° C | 34% | 1026.8 hPa | 0 mm | - | - | - |
| 1778243254 | 12.78° C | 31% | 1026.8 hPa | 0 mm | - | - | - |
| 1778242054 | 12.78° C | 24% | 1026.9 hPa | 0 mm | - | - | - |
| 1778240853 | 12.78° C | 29% | 1026.8 hPa | 0 mm | - | - | - |
| 1778239654 | 12.78° C | 34% | 1026.9 hPa | 0 mm | - | - | - |
| 1778238454 | 12.22° C | 31% | 1026.9 hPa | 0 mm | - | - | - |
* Rain latest hour (hover to see other rain measurements)
** Current wind speed in m/s (hover to see current wind gust speed)